Date,TemperatureHighF,TemperatureAvgF,TemperatureLowF,DewpointHighF,DewpointAvgF,DewpointLowF,HumidityHigh,HumidityAvg,HumidityLow,PressureMaxIn,PressureMinIn,WindSpeedMaxMPH,WindSpeedAvgMPH,GustSpeedMaxMPH,PrecipitationSumIn
2013-4-1,73.3,59.7,46.1,54.7,44.7,37.2,96,63,32,29.97,29.83,21,2,21,0.00
2013-4-2,67.0,54.6,41.1,40.3,33.0,24.6,77,46,27,30.14,29.97,12,2,12,0.00
2013-4-3,60.7,52.2,42.5,40.9,28.8,19.3,76,42,26,30.26,30.11,12,1,12,0.00
2013-4-4,47.8,41.1,36.7,40.7,35.1,26.7,95,80,45,30.26,30.00,18,3,18,0.77
2013-4-5,66.9,49.0,34.2,47.4,40.3,33.2,98,76,31,30.06,29.92,12,1,13,0.00
2013-4-6,70.3,51.6,31.8,46.6,37.5,30.5,97,66,29,30.22,30.06,15,1,15,0.00
2013-4-7,71.5,54.3,35.7,50.3,43.4,34.4,97,70,38,30.24,30.09,23,3,23,0.00
2013-4-8,78.0,60.6,45.0,59.6,50.7,42.8,97,73,43,30.15,30.03,22,3,22,0.00
2013-4-9,82.2,65.0,46.1,61.4,53.5,44.7,97,70,41,30.18,30.07,19,3,19,0.00
2013-4-10,83.7,67.2,49.0,62.9,56.1,47.6,97,71,41,30.08,29.92,20,3,20,0.00
2013-4-11,79.6,69.9,54.7,66.1,61.0,52.4,94,75,53,29.94,29.68,20,4,20,0.03
2013-4-12,79.7,69.0,57.6,66.3,54.5,38.1,96,65,26,29.81,29.62,28,5,28,0.72
2013-4-13,77.5,60.2,41.6,47.5,41.1,32.8,92,55,20,30.01,29.80,17,2,17,0.00
2013-4-14,72.0,57.8,39.8,53.8,45.8,38.2,97,68,36,30.09,29.97,12,2,12,0.02
2013-4-15,68.7,60.0,55.0,61.0,56.7,53.1,97,89,74,30.19,29.97,10,1,10,0.29
2013-4-16,78.7,66.5,58.6,64.1,58.7,56.1,94,78,52,30.27,30.15,14,2,15,0.00
2013-4-17,79.1,64.3,55.4,67.0,60.1,54.3,98,88,59,30.23,30.10,17,1,17,0.04
2013-4-18,79.5,66.6,55.7,64.5,60.6,54.9,99,83,53,30.14,29.94,15,2,15,0.01
2013-4-19,69.6,64.2,51.3,66.7,60.7,39.1,94,89,63,29.94,29.72,22,5,25,0.54
2013-4-20,66.0,52.0,37.7,40.7,34.9,25.4,92,56,22,30.27,29.91,15,2,15,0.12
2013-4-21,64.3,51.0,36.2,46.1,38.6,33.1,96,67,35,30.43,30.27,17,2,17,0.01
2013-4-22,64.1,51.5,39.5,43.9,39.6,35.0,94,67,37,30.42,30.21,17,2,17,0.00
2013-4-23,72.3,53.8,36.6,53.5,44.3,34.9,95,73,39,30.28,30.09,14,1,14,0.00
2013-4-24,73.3,63.3,45.3,60.2,55.3,43.9,95,77,57,30.13,29.99,28,4,28,0.00
2013-4-25,73.8,58.8,43.7,58.4,42.6,29.3,94,60,24,30.28,30.05,12,1,12,0.00
2013-4-26,70.8,54.7,36.8,51.6,40.5,34.5,94,64,30,30.43,30.28,14,1,14,0.00
2013-4-27,60.1,54.9,52.6,55.5,51.8,47.5,97,89,76,30.35,30.25,6,0,6,0.73
2013-4-28,54.0,53.2,51.6,53.2,52.4,50.5,98,97,96,30.26,30.05,9,1,9,1.22
2013-4-29,73.0,60.8,53.3,62.7,56.8,52.8,98,88,62,30.07,29.91,15,1,15,0.61
2013-4-30,74.6,61.8,48.2,64.7,57.2,47.3,99,86,61,30.17,29.97,13,1,13,0.02